Time;durP1;ratioP1;P1;durP2;ratioP2;P2;SDS_P1;SDS_P2;PMS_P1;PMS_P2;Temp;Humidity;BMP_temperature;BMP_pressure;BME280_temperature;BME280_humidity;BME280_pressure;Samples;Min_cycle;Max_cycle;Signal;HPM_P1;HPM_P2
2021/03/19 00:00:51;;;;;;;;;;;;;;;;;;5076135;28;1276;-57
2021/03/19 00:03:16;;;;;;;;;;;;;;;;;;5067538;28;807;-58
2021/03/19 00:05:42;;;;;;;;;;;;;;;;;;5076776;28;1978;-57
2021/03/19 00:08:07;;;;;;;;;;;;;;;;;;5066118;28;1052;-57
2021/03/19 00:10:33;;;;;;;;;;;;;;;;;;5068232;28;1343;-57
2021/03/19 00:13:00;;;;;;;;;;;;;;;;;;5076928;28;1371;-57
2021/03/19 00:15:26;;;;;;;;;;;;;;;;;;5088704;28;988;-57
2021/03/19 00:17:52;;;;;;;;;;;;;;;;;;5086818;28;1540;-57
2021/03/19 00:20:18;;;;;;;;;;;;;;;;;;5085972;28;1366;-57
2021/03/19 00:22:43;;;;;;;;;;;;;;;;;;5088249;28;803;-57
2021/03/19 00:25:09;;;;;;;;;;;;;;;;;;5086911;28;1893;-56
2021/03/19 00:27:35;;;;;;;;;;;;;;;;;;5087700;28;759;-58
2021/03/19 00:30:01;;;;;;;;;;;;;;;;;;5088210;28;835;-58
2021/03/19 00:32:26;;;;;;;;;;;;;;;;;;5087528;28;1173;-59
2021/03/19 00:34:51;;;;;;;;;;;;;;;;;;5087306;28;803;-59
2021/03/19 00:37:17;;;;;;;;;;;;;;;;;;5086728;28;1447;-58
2021/03/19 00:39:42;;;;;;;;;;;;;;;;;;5087484;28;1001;-57
2021/03/19 00:42:09;;;;;;;;;;;;;;;;;;5086226;28;1284;-58
2021/03/19 00:44:34;;;;;;;;;;;;;;;;;;5088915;28;929;-58
2021/03/19 00:47:00;;;;;;;;;;;;;;;;;;5072058;28;2353;-59
2021/03/19 00:49:25;;;;;;;;;;;;;;;;;;5067977;28;918;-58
2021/03/19 00:51:51;;;;;;;;;;;;;;;;;;5067352;28;1352;-58
2021/03/19 00:54:16;;;;;;;;;;;;;;;;;;5080833;28;1165;-58
2021/03/19 00:56:41;;;;;;;;;;;;;;;;;;5073248;28;1355;-58
2021/03/19 00:59:07;;;;;;;;;;;;;;;;;;5067438;28;819;-59
2021/03/19 01:01:35;;;;;;;;;;;;;;;;;;5066658;28;1354;-59
2021/03/19 01:04:02;;;;;;;;;;;;;;;;;;5047962;28;1374;-59
2021/03/19 01:06:27;;;;;;;;;;;;;;;;;;5062830;28;1893;-59
2021/03/19 01:08:52;;;;;;;;;;;;;;;;;;5067572;28;813;-59
2021/03/19 01:11:18;;;;;;;;;;;;;;;;;;5067104;28;1209;-59
2021/03/19 01:13:43;;;;;;;;;;;;;;;;;;5067303;28;894;-59
2021/03/19 01:16:08;;;;;;;;;;;;;;;;;;5066780;28;1364;-58
2021/03/19 01:18:34;;;;;;;;;;;;;;;;;;5067358;28;890;-58
2021/03/19 01:21:00;;;;;;;;;;;;;;;;;;5068141;28;1359;-57
2021/03/19 01:23:26;;;;;;;;;;;;;;;;;;5068175;28;839;-58
2021/03/19 01:25:51;;;;;;;;;;;;;;;;;;5066982;28;1894;-58
2021/03/19 01:28:17;;;;;;;;;;;;;;;;;;5067036;28;1015;-58
2021/03/19 01:30:43;;;;;;;;;;;;;;;;;;5066541;28;1360;-59
2021/03/19 01:33:09;;;;;;;;;;;;;;;;;;5066662;28;1308;-58
2021/03/19 01:35:37;;;;;;;;;;;;;;;;;;5066990;28;839;-58
2021/03/19 01:38:02;;;;;;;;;;;;;;;;;;5066645;28;1400;-57
2021/03/19 01:40:32;;;;;;;;;;;;;;;;;;5067676;28;835;-58
2021/03/19 01:43:05;;;;;;;;;;;;;;;;;;5067253;28;1352;-58
2021/03/19 01:45:49;;;;;;;;;;;;;;;;;;5070009;28;1889;-59
2021/03/19 01:48:33;;;;;;;;;;;;;;;;;;5066511;28;1280;-59
2021/03/19 01:51:17;;;;;;;;;;;;;;;;;;5067602;28;882;-58
2021/03/19 01:54:01;;;;;;;;;;;;;;;;;;5075905;28;1091;-57
2021/03/19 01:56:45;;;;;;;;;;;;;;;;;;5083833;28;1351;-57
2021/03/19 01:59:29;;;;;;;;;;;;;;;;;;5071284;28;928;-58
2021/03/19 02:02:13;;;;;;;;;;;;;;;;;;5074330;28;1366;-58
2021/03/19 02:04:56;;;;;;;;;;;;;;;;;;5086762;28;890;-58
2021/03/19 02:07:40;;;;;;;;;;;;;;;;;;5085392;28;1968;-58
2021/03/19 02:10:24;;;;;;;;;;;;;;;;;;5083230;28;1038;-59
2021/03/19 02:13:08;;;;;;;;;;;;;;;;;;5066500;28;1417;-58
2021/03/19 02:15:52;;;;;;;;;;;;;;;;;;5067657;28;923;-59
2021/03/19 02:18:36;;;;;;;;;;;;;;;;;;5069725;28;1335;-58
2021/03/19 02:21:20;;;;;;;;;;;;;;;;;;5069479;28;886;-58
2021/03/19 02:24:04;;;;;;;;;;;;;;;;;;5069878;28;1576;-58
2021/03/19 02:26:47;;;;;;;;;;;;;;;;;;5071103;28;1890;-58
2021/03/19 02:29:31;;;;;;;;;;;;;;;;;;5049868;28;921;-58
2021/03/19 02:32:05;;;;;;;;;;;;;;;;;;5052090;28;1414;-58
2021/03/19 02:34:34;;;;;;;;;;;;;;;;;;5069916;28;842;-57
2021/03/19 02:36:59;;;;;;;;;;;;;;;;;;5070520;28;1351;-58
2021/03/19 02:39:25;;;;;;;;;;;;;;;;;;5069198;28;891;-58
2021/03/19 02:41:50;;;;;;;;;;;;;;;;;;5069175;28;1363;-58
2021/03/19 02:44:16;;;;;;;;;;;;;;;;;;5049380;28;942;-58
2021/03/19 02:46:41;;;;;;;;;;;;;;;;;;5052210;28;1959;-57
2021/03/19 02:49:07;;;;;;;;;;;;;;;;;;5068732;28;1372;-58
2021/03/19 02:51:32;;;;;;;;;;;;;;;;;;5069480;28;823;-57
2021/03/19 02:53:57;;;;;;;;;;;;;;;;;;5085983;28;1359;-58
2021/03/19 02:56:23;;;;;;;;;;;;;;;;;;5089324;28;873;-57
2021/03/19 02:58:48;;;;;;;;;;;;;;;;;;5075917;28;1362;-57
2021/03/19 03:01:13;;;;;;;;;;;;;;;;;;5068916;28;1496;-57
2021/03/19 03:03:39;;;;;;;;;;;;;;;;;;5068798;28;893;-58
2021/03/19 03:06:04;;;;;;;;;;;;;;;;;;5068053;28;1965;-58
2021/03/19 03:08:31;;;;;;;;;;;;;;;;;;5070228;28;851;-58
2021/03/19 03:10:56;;;;;;;;;;;;;;;;;;5069356;28;1451;-58
2021/03/19 03:13:21;;;;;;;;;;;;;;;;;;5068459;28;909;-58
2021/03/19 03:15:47;;;;;;;;;;;;;;;;;;5068433;28;1442;-58
2021/03/19 03:18:13;;;;;;;;;;;;;;;;;;5068444;28;1360;-57
2021/03/19 03:20:40;;;;;;;;;;;;;;;;;;5068315;28;854;-58
2021/03/19 03:23:06;;;;;;;;;;;;;;;;;;5068454;28;1571;-58
2021/03/19 03:25:32;;;;;;;;;;;;;;;;;;5068984;28;1987;-58
2021/03/19 03:27:58;;;;;;;;;;;;;;;;;;5069673;28;1229;-57
2021/03/19 03:30:28;;;;;;;;;;;;;;;;;;5067236;28;1159;-58
2021/03/19 03:32:54;;;;;;;;;;;;;;;;;;5066169;28;1301;-58
2021/03/19 03:35:20;;;;;;;;;;;;;;;;;;5067699;28;1403;-57
2021/03/19 03:37:46;;;;;;;;;;;;;;;;;;5068212;28;874;-57
2021/03/19 03:40:13;;;;;;;;;;;;;;;;;;5068151;28;1415;-57
2021/03/19 03:42:39;;;;;;;;;;;;;;;;;;5068472;28;1617;-56
2021/03/19 03:45:06;;;;;;;;;;;;;;;;;;5067446;28;1890;-57
2021/03/19 03:47:31;;;;;;;;;;;;;;;;;;5070114;28;1548;-57
2021/03/19 03:49:57;;;;;;;;;;;;;;;;;;5069305;28;807;-56
2021/03/19 03:52:22;;;;;;;;;;;;;;;;;;5067606;28;1256;-56
2021/03/19 03:54:47;;;;;;;;;;;;;;;;;;5070635;28;1176;-56
2021/03/19 03:57:13;;;;;;;;;;;;;;;;;;5067854;28;883;-56
2021/03/19 03:59:38;;;;;;;;;;;;;;;;;;5075751;28;1356;-57
2021/03/19 04:02:17;;;;;;;;;;;;;;;;;;5087907;28;882;-57
2021/03/19 04:04:42;;;;;;;;;;;;;;;;;;5087215;28;1351;-58
2021/03/19 04:07:08;;;;;;;;;;;;;;;;;;5084743;28;1898;-57
2021/03/19 04:09:33;;;;;;;;;;;;;;;;;;5077253;28;1340;-57
2021/03/19 04:11:58;;;;;;;;;;;;;;;;;;5070821;28;812;-56
2021/03/19 04:14:24;;;;;;;;;;;;;;;;;;5087047;28;1359;-57
2021/03/19 04:16:49;;;;;;;;;;;;;;;;;;5088267;28;895;-57
2021/03/19 04:19:14;;;;;;;;;;;;;;;;;;5086340;28;1359;-56
2021/03/19 04:21:40;;;;;;;;;;;;;;;;;;5087990;28;854;-56
2021/03/19 04:24:05;;;;;;;;;;;;;;;;;;5087604;28;1415;-57
2021/03/19 04:26:32;;;;;;;;;;;;;;;;;;5088097;28;1885;-58
2021/03/19 04:28:58;;;;;;;;;;;;;;;;;;5087072;28;1421;-58
2021/03/19 04:31:25;;;;;;;;;;;;;;;;;;5087670;28;803;-58
2021/03/19 04:33:50;;;;;;;;;;;;;;;;;;5086588;28;1445;-58
2021/03/19 04:36:19;;;;;;;;;;;;;;;;;;5087614;28;929;-58
2021/03/19 04:38:45;;;;;;;;;;;;;;;;;;5069101;28;889;-58
2021/03/19 04:41:11;;;;;;;;;;;;;;;;;;5067686;28;1394;-58
2021/03/19 04:43:36;;;;;;;;;;;;;;;;;;5067004;28;894;-59
2021/03/19 04:46:02;;;;;;;;;;;;;;;;;;5068041;28;1948;-58
2021/03/19 04:48:27;;;;;;;;;;;;;;;;;;5070033;28;830;-58
2021/03/19 04:50:52;;;;;;;;;;;;;;;;;;5073411;28;1450;-58
2021/03/19 04:53:18;;;;;;;;;;;;;;;;;;5087456;28;1082;-58
2021/03/19 04:55:43;;;;;;;;;;;;;;;;;;5080005;28;1456;-59
2021/03/19 04:58:08;;;;;;;;;;;;;;;;;;5066568;28;898;-58
2021/03/19 05:00:34;;;;;;;;;;;;;;;;;;5065982;28;1391;-58
2021/03/19 05:02:59;;;;;;;;;;;;;;;;;;5067702;28;842;-59
2021/03/19 05:05:26;;;;;;;;;;;;;;;;;;5066981;28;1906;-58
2021/03/19 05:07:52;;;;;;;;;;;;;;;;;;5066459;28;1423;-58
2021/03/19 05:10:19;;;;;;;;;;;;;;;;;;5065345;28;1414;-58
2021/03/19 05:12:45;;;;;;;;;;;;;;;;;;5065936;28;1352;-59
2021/03/19 05:15:11;;;;;;;;;;;;;;;;;;5066547;28;787;-58
2021/03/19 05:17:36;;;;;;;;;;;;;;;;;;5065999;28;1252;-58
2021/03/19 05:20:03;;;;;;;;;;;;;;;;;;5066790;28;851;-58
2021/03/19 05:22:29;;;;;;;;;;;;;;;;;;5067944;28;1407;-58
2021/03/19 05:24:54;;;;;;;;;;;;;;;;;;5067115;28;839;-58
2021/03/19 05:27:20;;;;;;;;;;;;;;;;;;5065693;28;1979;-58
2021/03/19 05:29:46;;;;;;;;;;;;;;;;;;5066727;28;803;-58
2021/03/19 05:32:12;;;;;;;;;;;;;;;;;;5066558;28;1410;-58
2021/03/19 05:34:37;;;;;;;;;;;;;;;;;;5066314;28;1418;-58
2021/03/19 05:37:03;;;;;;;;;;;;;;;;;;5067028;28;894;-58
2021/03/19 05:39:28;;;;;;;;;;;;;;;;;;5067739;28;1415;-57
2021/03/19 05:41:54;;;;;;;;;;;;;;;;;;5066405;28;878;-58
2021/03/19 05:44:22;;;;;;;;;;;;;;;;;;5066055;28;1404;-58
2021/03/19 05:47:01;;;;;;;;;;;;;;;;;;5066819;28;1882;-59
2021/03/19 05:49:31;;;;;;;;;;;;;;;;;;5069367;28;1439;-58
2021/03/19 05:52:17;;;;;;;;;;;;;;;;;;5071311;28;906;-58
2021/03/19 05:54:43;;;;;;;;;;;;;;;;;;5073163;28;1806;-58
2021/03/19 05:57:16;;;;;;;;;;;;;;;;;;5069701;28;1363;-58
2021/03/19 05:59:44;;;;;;;;;;;;;;;;;;5069976;28;1320;-58
2021/03/19 06:02:20;;;;;;;;;;;;;;;;;;5070535;28;871;-58
2021/03/19 06:04:57;;;;;;;;;;;;;;;;;;5070253;28;1396;-57
2021/03/19 06:07:35;;;;;;;;;;;;;;;;;;5069730;28;1894;-58
2021/03/19 06:10:14;;;;;;;;;;;;;;;;;;5069400;28;1356;-58
2021/03/19 06:12:39;;;;;;;;;;;;;;;;;;5072525;28;1069;-57
2021/03/19 06:15:05;;;;;;;;;;;;;;;;;;5069586;28;1395;-58
2021/03/19 06:17:44;;;;;;;;;;;;;;;;;;5069859;28;1233;-57
2021/03/19 06:20:15;;;;;;;;;;;;;;;;;;5068857;28;1379;-58
2021/03/19 06:22:47;;;;;;;;;;;;;;;;;;5069631;28;804;-58
2021/03/19 06:25:23;;;;;;;;;;;;;;;;;;5067925;28;1896;-57
2021/03/19 06:27:53;;;;;;;;;;;;;;;;;;5070105;28;819;-58
2021/03/19 06:30:40;;;;;;;;;;;;;;;;;;5069909;28;882;-57
2021/03/19 06:33:06;;;;;;;;;;;;;;;;;;5069632;28;823;-57
2021/03/19 06:35:35;;;;;;;;;;;;;;;;;;5070119;28;813;-58
2021/03/19 06:38:19;;;;;;;;;;;;;;;;;;5070212;28;893;-58
2021/03/19 06:40:46;;;;;;;;;;;;;;;;;;5082326;28;1082;-57
2021/03/19 06:43:21;;;;;;;;;;;;;;;;;;5072981;28;1271;-57
2021/03/19 06:45:48;;;;;;;;;;;;;;;;;;5081578;28;1886;-58
2021/03/19 06:48:27;;;;;;;;;;;;;;;;;;5070269;28;1218;-57
2021/03/19 06:50:52;;;;;;;;;;;;;;;;;;5076278;28;1167;-57
2021/03/19 06:53:20;;;;;;;;;;;;;;;;;;5076601;28;980;-57
2021/03/19 06:55:48;;;;;;;;;;;;;;;;;;5089772;28;865;-58
2021/03/19 06:58:14;;;;;;;;;;;;;;;;;;5089501;28;797;-57
2021/03/19 07:00:42;;;;;;;;;;;;;;;;;;5085096;28;1399;-61
2021/03/19 07:03:13;;;;;;;;;;;;;;;;;;5069190;28;1269;-57
2021/03/19 07:05:44;;;;;;;;;;;;;;;;;;5069457;28;1897;-57
2021/03/19 07:08:14;;;;;;;;;;;;;;;;;;5068357;28;989;-57
2021/03/19 07:11:02;;;;;;;;;;;;;;;;;;5068864;28;1415;-57
2021/03/19 07:13:27;;;;;;;;;;;;;;;;;;5069742;28;906;-57
2021/03/19 07:16:11;;;;;;;;;;;;;;;;;;5068857;28;816;-56
2021/03/19 07:18:37;;;;;;;;;;;;;;;;;;5069607;28;846;-58
2021/03/19 07:21:17;;;;;;;;;;;;;;;;;;5068634;28;1478;-58
2021/03/19 07:23:48;;;;;;;;;;;;;;;;;;5068203;28;859;-58
2021/03/19 07:26:14;;;;;;;;;;;;;;;;;;5068772;28;1894;-59
2021/03/19 07:28:49;;;;;;;;;;;;;;;;;;5067751;28;855;-59
2021/03/19 07:31:39;;;;;;;;;;;;;;;;;;5068588;28;1150;-58
2021/03/19 07:34:13;;;;;;;;;;;;;;;;;;5068472;28;822;-59
2021/03/19 07:36:52;;;;;;;;;;;;;;;;;;5064712;28;2136;-59
2021/03/19 07:39:36;;;;;;;;;;;;;;;;;;5068945;28;819;-59
2021/03/19 07:42:17;;;;;;;;;;;;;;;;;;5067878;28;1255;-58
2021/03/19 07:44:51;;;;;;;;;;;;;;;;;;5073413;28;1222;-58
2021/03/19 07:47:19;;;;;;;;;;;;;;;;;;5071628;28;1963;-59
2021/03/19 07:49:48;;;;;;;;;;;;;;;;;;5067484;28;1356;-58
2021/03/19 07:52:24;;;;;;;;;;;;;;;;;;5064375;28;1601;-58
2021/03/19 07:54:49;;;;;;;;;;;;;;;;;;5064631;28;1140;-58
2021/03/19 07:57:37;;;;;;;;;;;;;;;;;;5066354;28;832;-58
2021/03/19 08:00:14;;;;;;;;;;;;;;;;;;5067225;28;880;-59
2021/03/19 08:02:58;;;;;;;;;;;;;;;;;;5067918;28;1320;-59
2021/03/19 08:05:26;;;;;;;;;;;;;;;;;;5067723;28;1924;-58
2021/03/19 08:08:11;;;;;;;;;;;;;;;;;;5067799;28;1090;-58
2021/03/19 08:10:40;;;;;;;;;;;;;;;;;;5067959;28;850;-59
2021/03/19 08:13:21;;;;;;;;;;;;;;;;;;5067559;28;938;-58
2021/03/19 08:16:08;;;;;;;;;;;;;;;;;;5067870;28;910;-58
2021/03/19 08:18:52;;;;;;;;;;;;;;;;;;5067433;28;831;-59
2021/03/19 08:21:33;;;;;;;;;;;;;;;;;;5067306;28;895;-58
2021/03/19 08:24:18;;;;;;;;;;;;;;;;;;5068089;28;828;-59
2021/03/19 08:26:43;;;;;;;;;;;;;;;;;;5067284;28;1910;-58
2021/03/19 08:29:12;;;;;;;;;;;;;;;;;;5067581;28;1187;-58
2021/03/19 08:31:41;;;;;;;;;;;;;;;;;;5047717;28;839;-57
2021/03/19 08:34:33;;;;;;;;;;;;;;;;;;5047785;28;834;-58
2021/03/19 08:36:58;;;;;;;;;;;;;;;;;;5023878;28;2347;-59
2021/03/19 08:39:29;;;;;;;;;;;;;;;;;;5044533;28;902;-58
2021/03/19 08:42:00;;;;;;;;;;;;;;;;;;5047142;28;854;-58
2021/03/19 08:44:28;;;;;;;;;;;;;;;;;;5047054;28;905;-58
2021/03/19 08:47:12;;;;;;;;;;;;;;;;;;5047508;28;1894;-59
2021/03/19 08:49:40;;;;;;;;;;;;;;;;;;5047154;28;876;-59
2021/03/19 08:52:27;;;;;;;;;;;;;;;;;;5047156;28;878;-59
2021/03/19 08:55:11;;;;;;;;;;;;;;;;;;5065881;28;1166;-59
2021/03/19 08:57:36;;;;;;;;;;;;;;;;;;5067226;28;906;-59
2021/03/19 09:00:05;;;;;;;;;;;;;;;;;;5067235;28;1369;-59
2021/03/19 09:02:33;;;;;;;;;;;;;;;;;;5068439;28;1087;-58
2021/03/19 09:04:59;;;;;;;;;;;;;;;;;;5068119;28;865;-58
2021/03/19 09:07:30;;;;;;;;;;;;;;;;;;5067323;28;1977;-58
2021/03/19 09:10:07;;;;;;;;;;;;;;;;;;5067432;28;922;-59
2021/03/19 09:12:52;;;;;;;;;;;;;;;;;;5067575;28;893;-59
2021/03/19 09:15:18;;;;;;;;;;;;;;;;;;5067373;28;1150;-57
2021/03/19 09:17:43;;;;;;;;;;;;;;;;;;5067402;28;740;-58
2021/03/19 09:20:29;;;;;;;;;;;;;;;;;;5067808;28;878;-58
2021/03/19 09:23:10;;;;;;;;;;;;;;;;;;5066959;28;866;-58
2021/03/19 09:25:35;;;;;;;;;;;;;;;;;;5070282;28;1905;-58
2021/03/19 09:28:01;;;;;;;;;;;;;;;;;;5072409;28;819;-59
2021/03/19 09:30:41;;;;;;;;;;;;;;;;;;5072285;28;914;-58
2021/03/19 09:33:10;;;;;;;;;;;;;;;;;;5070744;28;918;-58
2021/03/19 09:35:43;;;;;;;;;;;;;;;;;;5071058;28;812;-59
2021/03/19 09:38:31;;;;;;;;;;;;;;;;;;5071175;28;847;-59
2021/03/19 09:40:58;;;;;;;;;;;;;;;;;;5071719;28;1079;-58
2021/03/19 09:43:38;;;;;;;;;;;;;;;;;;5070676;28;929;-59
2021/03/19 09:46:05;;;;;;;;;;;;;;;;;;5070544;28;1910;-59
2021/03/19 09:48:33;;;;;;;;;;;;;;;;;;5071380;28;823;-59
2021/03/19 09:51:04;;;;;;;;;;;;;;;;;;5071553;28;901;-59
2021/03/19 09:53:34;;;;;;;;;;;;;;;;;;5071211;28;1161;-59
2021/03/19 09:56:02;;;;;;;;;;;;;;;;;;5071019;28;831;-58
2021/03/19 09:58:45;;;;;;;;;;;;;;;;;;5071184;28;1076;-59
2021/03/19 10:01:13;;;;;;;;;;;;;;;;;;5090976;28;815;-59
2021/03/19 10:03:45;;;;;;;;;;;;;;;;;;5089970;28;883;-58
2021/03/19 10:06:17;;;;;;;;;;;;;;;;;;5090153;28;1902;-59
2021/03/19 10:08:43;;;;;;;;;;;;;;;;;;5090660;28;831;-60
2021/03/19 10:11:11;;;;;;;;;;;;;;;;;;5090736;28;868;-58
2021/03/19 10:13:37;;;;;;;;;;;;;;;;;;5090520;28;870;-58
2021/03/19 10:16:03;;;;;;;;;;;;;;;;;;5087093;28;1065;-58
2021/03/19 10:18:43;;;;;;;;;;;;;;;;;;5091529;28;862;-60
2021/03/19 10:21:10;;;;;;;;;;;;;;;;;;5090521;28;822;-61
2021/03/19 10:23:37;;;;;;;;;;;;;;;;;;5090383;28;854;-60
2021/03/19 10:26:17;;;;;;;;;;;;;;;;;;5090463;28;1969;-60
2021/03/19 10:28:44;;;;;;;;;;;;;;;;;;5089770;28;842;-60
2021/03/19 10:31:12;;;;;;;;;;;;;;;;;;5089410;28;815;-60
2021/03/19 10:33:49;;;;;;;;;;;;;;;;;;5090034;28;947;-60
2021/03/19 10:36:17;;;;;;;;;;;;;;;;;;5088787;28;890;-60
2021/03/19 10:38:54;;;;;;;;;;;;;;;;;;5090187;28;826;-60
2021/03/19 10:41:28;;;;;;;;;;;;;;;;;;5090309;28;855;-60
2021/03/19 10:44:00;;;;;;;;;;;;;;;;;;5089812;28;827;-60
2021/03/19 10:46:34;;;;;;;;;;;;;;;;;;5089343;28;1996;-59
2021/03/19 10:49:05;;;;;;;;;;;;;;;;;;5090191;28;854;-60
2021/03/19 10:51:52;;;;;;;;;;;;;;;;;;5090251;28;826;-61
2021/03/19 10:54:22;;;;;;;;;;;;;;;;;;5075567;28;1078;-60
2021/03/19 10:56:50;;;;;;;;;;;;;;;;;;5069297;28;936;-60
2021/03/19 10:59:20;;;;;;;;;;;;;;;;;;5069341;28;889;-60
2021/03/19 11:01:50;;;;;;;;;;;;;;;;;;5068740;28;804;-60
2021/03/19 11:04:36;;;;;;;;;;;;;;;;;;5069203;28;882;-60
2021/03/19 11:07:20;;;;;;;;;;;;;;;;;;5069913;28;2415;-61
2021/03/19 11:10:04;;;;;;;;;;;;;;;;;;5068643;28;862;-60
2021/03/19 11:12:43;;;;;;;;;;;;;;;;;;5069736;28;855;-60
2021/03/19 11:15:14;;;;;;;;;;;;;;;;;;5069591;28;826;-60
2021/03/19 11:17:39;;;;;;;;;;;;;;;;;;5069243;28;847;-60
2021/03/19 11:20:25;;;;;;;;;;;;;;;;;;5068948;28;811;-59
2021/03/19 11:22:50;;;;;;;;;;;;;;;;;;5068542;28;2086;-60
2021/03/19 11:25:34;;;;;;;;;;;;;;;;;;5069308;28;603;-59
2021/03/19 11:28:00;;;;;;;;;;;;;;;;;;5069378;28;870;-59
2021/03/19 11:30:29;;;;;;;;;;;;;;;;;;5068906;28;897;-60
2021/03/19 11:33:06;;;;;;;;;;;;;;;;;;5068946;28;839;-60
2021/03/19 11:35:32;;;;;;;;;;;;;;;;;;5068323;28;881;-61
2021/03/19 11:37:58;;;;;;;;;;;;;;;;;;5069413;28;917;-60
2021/03/19 11:40:23;;;;;;;;;;;;;;;;;;5068944;28;882;-59
2021/03/19 11:42:50;;;;;;;;;;;;;;;;;;5068890;28;854;-60
2021/03/19 11:45:16;;;;;;;;;;;;;;;;;;5068371;28;1038;-59
2021/03/19 11:47:45;;;;;;;;;;;;;;;;;;5068547;28;1890;-59
2021/03/19 11:50:28;;;;;;;;;;;;;;;;;;5069299;28;827;-60
2021/03/19 11:52:55;;;;;;;;;;;;;;;;;;5068369;28;1006;-59
2021/03/19 11:55:23;;;;;;;;;;;;;;;;;;5068600;28;894;-60
2021/03/19 11:57:49;;;;;;;;;;;;;;;;;;5068831;28;906;-60
2021/03/19 12:00:21;;;;;;;;;;;;;;;;;;5081659;28;906;-59
2021/03/19 12:02:51;;;;;;;;;;;;;;;;;;5088728;28;1209;-59
2021/03/19 12:05:19;;;;;;;;;;;;;;;;;;5088705;28;861;-60
2021/03/19 12:07:44;;;;;;;;;;;;;;;;;;5088283;28;1917;-59
2021/03/19 12:10:10;;;;;;;;;;;;;;;;;;5088000;28;961;-59
2021/03/19 12:12:36;;;;;;;;;;;;;;;;;;5088196;28;1107;-60
2021/03/19 12:15:02;;;;;;;;;;;;;;;;;;5089121;28;826;-60
2021/03/19 12:17:28;;;;;;;;;;;;;;;;;;5089091;28;913;-59
2021/03/19 12:19:53;;;;;;;;;;;;;;;;;;5088041;28;798;-59
2021/03/19 12:22:20;;;;;;;;;;;;;;;;;;5085102;28;1041;-59
2021/03/19 12:24:45;;;;;;;;;;;;;;;;;;5088120;28;814;-60
2021/03/19 12:27:13;;;;;;;;;;;;;;;;;;5087891;28;1893;-60
2021/03/19 12:29:38;;;;;;;;;;;;;;;;;;5087625;28;814;-59
2021/03/19 12:32:04;;;;;;;;;;;;;;;;;;5087942;28;963;-59
2021/03/19 12:34:29;;;;;;;;;;;;;;;;;;5088570;28;924;-59
2021/03/19 12:36:55;;;;;;;;;;;;;;;;;;5087908;28;791;-59
2021/03/19 12:39:21;;;;;;;;;;;;;;;;;;5088231;28;865;-60
2021/03/19 12:41:47;;;;;;;;;;;;;;;;;;5088089;28;872;-59
2021/03/19 12:44:13;;;;;;;;;;;;;;;;;;5087988;28;949;-59
2021/03/19 12:46:39;;;;;;;;;;;;;;;;;;5088070;28;1980;-60
2021/03/19 12:49:04;;;;;;;;;;;;;;;;;;5087950;28;826;-59
2021/03/19 12:51:30;;;;;;;;;;;;;;;;;;5088751;28;894;-60
2021/03/19 12:53:55;;;;;;;;;;;;;;;;;;5076301;28;1078;-59
2021/03/19 12:56:21;;;;;;;;;;;;;;;;;;5067604;28;894;-59
2021/03/19 12:58:46;;;;;;;;;;;;;;;;;;5066992;28;934;-60
2021/03/19 13:01:13;;;;;;;;;;;;;;;;;;5067380;28;914;-60
2021/03/19 13:03:38;;;;;;;;;;;;;;;;;;5067655;28;880;-60
2021/03/19 13:06:04;;;;;;;;;;;;;;;;;;5067455;28;1965;-60
2021/03/19 13:08:29;;;;;;;;;;;;;;;;;;5068268;28;925;-59
2021/03/19 13:10:55;;;;;;;;;;;;;;;;;;5067166;28;882;-59
2021/03/19 13:13:20;;;;;;;;;;;;;;;;;;5068046;28;1071;-59
2021/03/19 13:15:46;;;;;;;;;;;;;;;;;;5067377;28;858;-59
2021/03/19 13:18:13;;;;;;;;;;;;;;;;;;5067058;28;867;-59
2021/03/19 13:20:38;;;;;;;;;;;;;;;;;;5066827;28;807;-59
2021/03/19 13:23:06;;;;;;;;;;;;;;;;;;5066903;28;859;-59
2021/03/19 13:25:33;;;;;;;;;;;;;;;;;;5067265;28;1961;-59
2021/03/19 13:28:00;;;;;;;;;;;;;;;;;;5067883;28;859;-59
2021/03/19 13:30:27;;;;;;;;;;;;;;;;;;5067343;28;827;-59
2021/03/19 13:32:53;;;;;;;;;;;;;;;;;;5067005;28;957;-59
2021/03/19 13:35:20;;;;;;;;;;;;;;;;;;5067094;28;858;-59
2021/03/19 13:37:45;;;;;;;;;;;;;;;;;;5067095;28;800;-59
2021/03/19 13:40:11;;;;;;;;;;;;;;;;;;5066481;28;823;-59
2021/03/19 13:42:36;;;;;;;;;;;;;;;;;;5048467;28;1234;-59
2021/03/19 13:45:02;;;;;;;;;;;;;;;;;;5067290;28;831;-60
2021/03/19 13:47:28;;;;;;;;;;;;;;;;;;5067879;28;1953;-59
2021/03/19 13:49:53;;;;;;;;;;;;;;;;;;5066625;28;878;-60
2021/03/19 13:52:18;;;;;;;;;;;;;;;;;;5066818;28;867;-60
2021/03/19 13:54:44;;;;;;;;;;;;;;;;;;5066854;28;1094;-60
2021/03/19 13:57:09;;;;;;;;;;;;;;;;;;5066508;28;827;-60
2021/03/19 13:59:35;;;;;;;;;;;;;;;;;;5074431;28;937;-60
2021/03/19 14:02:02;;;;;;;;;;;;;;;;;;5087908;28;849;-60
2021/03/19 14:04:27;;;;;;;;;;;;;;;;;;5087600;28;877;-59
2021/03/19 14:06:53;;;;;;;;;;;;;;;;;;5086715;28;1893;-60
2021/03/19 14:09:18;;;;;;;;;;;;;;;;;;5086781;28;886;-59
2021/03/19 14:11:44;;;;;;;;;;;;;;;;;;5089127;28;902;-59
2021/03/19 14:14:09;;;;;;;;;;;;;;;;;;5090723;28;842;-59
2021/03/19 14:16:35;;;;;;;;;;;;;;;;;;5087240;28;1085;-60
2021/03/19 14:19:00;;;;;;;;;;;;;;;;;;5091664;28;819;-59
2021/03/19 14:21:26;;;;;;;;;;;;;;;;;;5090463;28;839;-59
2021/03/19 14:23:51;;;;;;;;;;;;;;;;;;5090073;28;823;-59
2021/03/19 14:26:17;;;;;;;;;;;;;;;;;;5089849;28;1973;-59
2021/03/19 14:28:43;;;;;;;;;;;;;;;;;;5090557;28;831;-60
2021/03/19 14:31:10;;;;;;;;;;;;;;;;;;5090045;28;843;-59
2021/03/19 14:33:36;;;;;;;;;;;;;;;;;;5090084;28;823;-60
2021/03/19 14:36:01;;;;;;;;;;;;;;;;;;5091302;28;834;-60
2021/03/19 14:38:27;;;;;;;;;;;;;;;;;;5088923;28;1272;-60
2021/03/19 14:40:53;;;;;;;;;;;;;;;;;;5090015;28;802;-60
2021/03/19 14:43:19;;;;;;;;;;;;;;;;;;5090026;28;911;-60
2021/03/19 14:45:45;;;;;;;;;;;;;;;;;;5090062;28;1960;-59
2021/03/19 14:48:16;;;;;;;;;;;;;;;;;;5089512;28;898;-60
2021/03/19 14:50:42;;;;;;;;;;;;;;;;;;5089294;28;893;-59
2021/03/19 14:53:08;;;;;;;;;;;;;;;;;;5085730;28;1165;-59
2021/03/19 14:55:34;;;;;;;;;;;;;;;;;;5069046;28;929;-60
2021/03/19 14:58:00;;;;;;;;;;;;;;;;;;5070293;28;894;-59
2021/03/19 15:00:28;;;;;;;;;;;;;;;;;;5069586;28;811;-60
2021/03/19 15:02:54;;;;;;;;;;;;;;;;;;5069662;28;839;-60
2021/03/19 15:05:20;;;;;;;;;;;;;;;;;;5069487;28;886;-59
2021/03/19 15:07:45;;;;;;;;;;;;;;;;;;5068786;28;1902;-59
2021/03/19 15:10:13;;;;;;;;;;;;;;;;;;5068708;28;1041;-60
2021/03/19 15:12:39;;;;;;;;;;;;;;;;;;5068987;28;894;-60
2021/03/19 15:15:04;;;;;;;;;;;;;;;;;;5068847;28;823;-60
2021/03/19 15:17:30;;;;;;;;;;;;;;;;;;5070163;28;843;-60
2021/03/19 15:19:55;;;;;;;;;;;;;;;;;;5068992;28;827;-60
2021/03/19 15:22:21;;;;;;;;;;;;;;;;;;5068434;28;914;-59
2021/03/19 15:24:46;;;;;;;;;;;;;;;;;;5069223;28;851;-59
2021/03/19 15:27:11;;;;;;;;;;;;;;;;;;5068852;28;1890;-59
2021/03/19 15:29:37;;;;;;;;;;;;;;;;;;5068681;28;897;-59
2021/03/19 15:32:02;;;;;;;;;;;;;;;;;;5068774;28;906;-60
2021/03/19 15:34:28;;;;;;;;;;;;;;;;;;5069583;28;845;-60
2021/03/19 15:36:53;;;;;;;;;;;;;;;;;;5068732;28;862;-60
2021/03/19 15:39:20;;;;;;;;;;;;;;;;;;5067981;28;819;-60
2021/03/19 15:41:46;;;;;;;;;;;;;;;;;;5068162;28;953;-60
2021/03/19 15:44:11;;;;;;;;;;;;;;;;;;5068046;28;913;-60
2021/03/19 15:46:36;;;;;;;;;;;;;;;;;;5067803;28;1973;-60
2021/03/19 15:49:02;;;;;;;;;;;;;;;;;;5068375;28;835;-60
2021/03/19 15:51:27;;;;;;;;;;;;;;;;;;5068780;28;827;-60
2021/03/19 15:53:52;;;;;;;;;;;;;;;;;;5068103;28;1133;-60
2021/03/19 15:56:18;;;;;;;;;;;;;;;;;;5068127;28;948;-60
2021/03/19 15:58:43;;;;;;;;;;;;;;;;;;5069510;28;867;-60
2021/03/19 16:01:08;;;;;;;;;;;;;;;;;;5088616;28;893;-60
2021/03/19 16:03:34;;;;;;;;;;;;;;;;;;5088256;28;846;-59
2021/03/19 16:06:00;;;;;;;;;;;;;;;;;;5089205;28;1918;-60
2021/03/19 16:08:26;;;;;;;;;;;;;;;;;;5088968;28;877;-60
2021/03/19 16:10:52;;;;;;;;;;;;;;;;;;5088530;28;870;-59
2021/03/19 16:13:20;;;;;;;;;;;;;;;;;;5088039;28;850;-59
2021/03/19 16:15:46;;;;;;;;;;;;;;;;;;5088405;28;822;-60
2021/03/19 16:18:14;;;;;;;;;;;;;;;;;;5084464;28;1037;-60
2021/03/19 16:20:41;;;;;;;;;;;;;;;;;;5087797;28;1043;-59
2021/03/19 16:23:07;;;;;;;;;;;;;;;;;;5087858;28;952;-59
2021/03/19 16:25:33;;;;;;;;;;;;;;;;;;5087850;28;1925;-60
2021/03/19 16:27:59;;;;;;;;;;;;;;;;;;5088451;28;936;-59
2021/03/19 16:30:30;;;;;;;;;;;;;;;;;;5087381;28;871;-59
2021/03/19 16:32:55;;;;;;;;;;;;;;;;;;5087902;28;889;-60
2021/03/19 16:35:22;;;;;;;;;;;;;;;;;;5087427;28;839;-59
2021/03/19 16:37:48;;;;;;;;;;;;;;;;;;5087882;28;736;-59
2021/03/19 16:40:14;;;;;;;;;;;;;;;;;;5088081;28;944;-60
2021/03/19 16:42:39;;;;;;;;;;;;;;;;;;5087788;28;839;-59
2021/03/19 16:45:05;;;;;;;;;;;;;;;;;;5087407;28;892;-60
2021/03/19 16:47:30;;;;;;;;;;;;;;;;;;5088249;28;1882;-59
2021/03/19 16:49:56;;;;;;;;;;;;;;;;;;5088096;28;905;-59
2021/03/19 16:52:21;;;;;;;;;;;;;;;;;;5087341;28;909;-60
2021/03/19 16:54:46;;;;;;;;;;;;;;;;;;5068846;28;1137;-60
2021/03/19 16:57:12;;;;;;;;;;;;;;;;;;5067503;28;851;-60
2021/03/19 16:59:37;;;;;;;;;;;;;;;;;;5066979;28;930;-60
2021/03/19 17:02:02;;;;;;;;;;;;;;;;;;5067193;28;847;-60
2021/03/19 17:04:28;;;;;;;;;;;;;;;;;;5068168;28;918;-59
2021/03/19 17:06:53;;;;;;;;;;;;;;;;;;5067598;28;1890;-60
2021/03/19 17:09:19;;;;;;;;;;;;;;;;;;5066691;28;862;-59
2021/03/19 17:11:44;;;;;;;;;;;;;;;;;;5066759;28;867;-59
2021/03/19 17:14:09;;;;;;;;;;;;;;;;;;5067238;28;836;-60
2021/03/19 17:16:35;;;;;;;;;;;;;;;;;;5066837;28;962;-60
2021/03/19 17:19:00;;;;;;;;;;;;;;;;;;5067601;28;857;-60
2021/03/19 17:21:26;;;;;;;;;;;;;;;;;;5066743;28;839;-59
2021/03/19 17:23:51;;;;;;;;;;;;;;;;;;5067389;28;862;-59
2021/03/19 17:26:20;;;;;;;;;;;;;;;;;;5066655;28;1894;-59